Time;durP1;ratioP1;P1;durP2;ratioP2;P2;SDS_P1;SDS_P2;PMS_P1;PMS_P2;Temp;Humidity;BMP_temperature;BMP_pressure;BME280_temperature;BME280_humidity;BME280_pressure;Samples;Min_cycle;Max_cycle;Signal;HPM_P1;HPM_P2
2022/02/27 00:02:21;;;;;;;5.75;2.22;;;-3276.00;87.60;;;;;;5070749;28;20024;-84
2022/02/27 00:04:47;;;;;;;7.45;2.60;;;-3276.00;87.90;;;;;;5067884;28;20049;-84
2022/02/27 00:07:13;;;;;;;7.65;2.20;;;-3275.90;88.10;;;;;;5068440;28;20049;-84
2022/02/27 00:09:38;;;;;;;6.38;2.35;;;-3275.90;88.40;;;;;;5071050;28;20072;-84
2022/02/27 00:12:04;;;;;;;7.38;2.75;;;-3276.50;89.40;;;;;;5070757;28;20036;-84
2022/02/27 00:14:30;;;;;;;6.68;2.60;;;-3276.50;88.80;;;;;;5060464;28;20043;-84
2022/02/27 00:16:55;;;;;;;7.28;2.55;;;-3276.40;88.40;;;;;;5087939;28;20040;-85
2022/02/27 00:19:23;;;;;;;3.97;2.30;;;-3276.40;88.30;;;;;;5066193;28;20028;-84
2022/02/27 00:21:49;;;;;;;5.40;2.40;;;-3276.40;88.40;;;;;;5070197;28;20138;-85
2022/02/27 00:24:15;;;;;;;6.88;2.58;;;-3276.30;88.30;;;;;;5069721;28;20123;-84
2022/02/27 00:26:40;;;;;;;5.53;2.35;;;-3276.30;88.40;;;;;;5071072;28;20040;-84
2022/02/27 00:29:06;;;;;;;5.95;2.50;;;-3276.50;88.90;;;;;;5070061;28;20025;-83
2022/02/27 00:31:31;;;;;;;8.00;2.90;;;-3276.70;88.60;;;;;;5069746;28;20039;-83
2022/02/27 00:33:57;;;;;;;6.30;2.50;;;-3276.60;88.20;;;;;;5070025;28;20480;-84
2022/02/27 00:36:22;;;;;;;6.18;2.45;;;-3276.40;87.90;;;;;;5070370;28;20023;-84
2022/02/27 00:38:48;;;;;;;7.07;2.50;;;-3276.40;88.20;;;;;;5071665;28;20035;-83
2022/02/27 00:41:13;;;;;;;4.45;2.05;;;-3276.40;88.40;;;;;;5068877;28;20027;-83
2022/02/27 00:43:39;;;;;;;5.60;2.47;;;-3276.40;88.60;;;;;;5072449;28;20086;-84
2022/02/27 00:46:06;;;;;;;8.40;2.45;;;-3276.30;88.40;;;;;;5070837;28;20377;-84
2022/02/27 00:48:34;;;;;;;4.43;2.08;;;-3276.50;88.60;;;;;;5081447;28;20515;-83
2022/02/27 00:51:00;;;;;;;6.53;2.00;;;-3276.50;88.50;;;;;;5070203;28;20071;-83
2022/02/27 00:53:25;;;;;;;4.90;2.22;;;-3276.50;88.40;;;;;;5072223;28;20064;-83
2022/02/27 00:55:51;;;;;;;4.10;2.08;;;-3276.40;88.40;;;;;;5074590;28;20074;-83
2022/02/27 00:58:16;;;;;;;6.00;2.15;;;-3276.50;88.50;;;;;;5068900;28;20119;-83
2022/02/27 01:00:42;;;;;;;9.90;2.70;;;-3276.50;88.60;;;;;;5062762;28;20107;-82
2022/02/27 01:03:07;;;;;;;4.05;1.92;;;-3276.60;88.90;;;;;;5071536;28;20453;-83
2022/02/27 01:05:33;;;;;;;4.00;1.92;;;-3276.50;88.50;;;;;;5068163;28;20050;-82
2022/02/27 01:07:59;;;;;;;4.35;2.17;;;-3276.30;88.30;;;;;;5066651;28;20088;-82
2022/02/27 01:10:24;;;;;;;5.38;2.33;;;-3276.40;88.60;;;;;;5066854;28;20024;-82
2022/02/27 01:12:50;;;;;;;6.43;2.60;;;-3276.30;88.50;;;;;;5069713;28;20470;-82
2022/02/27 01:15:16;;;;;;;4.55;1.83;;;-3276.30;88.80;;;;;;5058703;28;20029;-82
2022/02/27 01:17:41;;;;;;;5.25;1.92;;;-3276.20;88.90;;;;;;5065179;28;20017;-82
2022/02/27 01:20:07;;;;;;;4.88;2.15;;;-3276.10;88.90;;;;;;5061568;28;20082;-82
2022/02/27 01:22:33;;;;;;;8.07;2.25;;;-3276.10;89.10;;;;;;5070591;28;20028;-82
2022/02/27 01:24:59;;;;;;;7.00;2.03;;;-3276.00;89.20;;;;;;5087112;28;20116;-82
2022/02/27 01:27:24;;;;;;;5.82;2.05;;;-3276.00;89.40;;;;;;5073349;28;20028;-82
2022/02/27 01:29:50;;;;;;;7.38;2.60;;;-3275.90;89.60;;;;;;5072151;28;20036;-82
2022/02/27 01:32:15;;;;;;;4.63;2.17;;;-3275.90;89.70;;;;;;5070497;28;20044;-82
2022/02/27 01:34:41;;;;;;;9.95;2.55;;;-3275.80;89.80;;;;;;5067955;28;20056;-82
2022/02/27 01:37:07;;;;;;;6.93;2.33;;;-3275.90;90.00;;;;;;5063262;28;20507;-82
2022/02/27 01:39:32;;;;;;;7.03;2.65;;;-3275.80;90.10;;;;;;5070193;28;20107;-82
2022/02/27 01:41:58;;;;;;;5.53;2.30;;;-3275.90;90.30;;;;;;5069932;28;20016;-82
2022/02/27 01:44:24;;;;;;;5.38;2.30;;;-3275.80;90.30;;;;;;5072186;28;20298;-82
2022/02/27 01:47:07;;;;;;;8.18;2.42;;;-3275.70;90.30;;;;;;5068460;28;20028;-82
2022/02/27 01:49:32;;;;;;;5.88;2.78;;;-3275.70;90.50;;;;;;5067436;28;20484;-82
2022/02/27 01:51:58;;;;;;;6.65;2.75;;;-3275.70;90.60;;;;;;5064235;28;20075;-82
2022/02/27 01:54:24;;;;;;;5.70;2.90;;;-3275.70;90.70;;;;;;5067051;28;20450;-82
2022/02/27 01:56:51;;;;;;;6.32;2.40;;;-3275.70;90.70;;;;;;5070988;28;20045;-82
2022/02/27 01:59:17;;;;;;;7.38;2.75;;;-3275.70;90.80;;;;;;5068973;28;20021;-82
2022/02/27 02:01:42;;;;;;;8.23;2.10;;;-3275.70;90.80;;;;;;5069623;28;20370;-82
2022/02/27 02:04:08;;;;;;;4.80;2.35;;;-3275.80;91.10;;;;;;5070260;28;20044;-82
2022/02/27 02:06:35;;;;;;;6.80;2.40;;;-3275.80;91.00;;;;;;5068641;28;20174;-82
2022/02/27 02:09:01;;;;;;;6.43;2.38;;;-3275.80;90.90;;;;;;5069835;28;20056;-83
2022/02/27 02:11:27;;;;;;;5.70;2.28;;;-3275.80;91.00;;;;;;5070186;28;20025;-83
2022/02/27 02:13:53;;;;;;;10.43;2.70;;;-3275.80;91.10;;;;;;5069169;28;20029;-82
2022/02/27 02:16:19;;;;;;;6.18;2.75;;;-3275.90;91.20;;;;;;5068382;28;20025;-82
2022/02/27 02:18:44;;;;;;;5.20;2.75;;;-3275.90;90.90;;;;;;5060666;28;20035;-82
2022/02/27 02:21:10;;;;;;;6.47;2.67;;;-3275.90;91.10;;;;;;5069271;28;20024;-83
2022/02/27 02:23:35;;;;;;;9.07;3.00;;;-3276.00;91.10;;;;;;5084968;28;20036;-82
2022/02/27 02:26:03;;;;;;;5.38;2.50;;;-3276.10;91.00;;;;;;5069463;28;20032;-82
2022/02/27 02:28:28;;;;;;;5.38;2.70;;;-3276.00;90.80;;;;;;5071841;28;20404;-82
2022/02/27 02:30:54;;;;;;;9.07;3.17;;;-3275.90;90.80;;;;;;5076107;28;20039;-82
2022/02/27 02:33:33;;;;;;;10.15;2.97;;;-3276.10;91.10;;;;;;5065011;28;20052;-82
2022/02/27 02:35:58;;;;;;;8.50;2.90;;;-3276.10;90.80;;;;;;5082539;28;20035;-82
2022/02/27 02:38:24;;;;;;;8.65;3.03;;;-3276.10;90.80;;;;;;5070075;28;20327;-82
2022/02/27 02:40:50;;;;;;;8.38;2.63;;;-3276.20;90.90;;;;;;5067301;28;20032;-82
2022/02/27 02:43:16;;;;;;;6.53;3.00;;;-3276.10;90.80;;;;;;5067607;28;20115;-82
2022/02/27 02:45:42;;;;;;;9.15;3.28;;;-3276.20;91.00;;;;;;5068420;28;20111;-82
2022/02/27 02:48:07;;;;;;;9.10;2.80;;;-3276.30;90.90;;;;;;5066358;28;20120;-82
2022/02/27 02:50:33;;;;;;;11.13;4.00;;;-3276.30;90.90;;;;;;5066108;28;20035;-82
2022/02/27 02:52:58;;;;;;;7.80;3.17;;;-3276.40;90.90;;;;;;5064447;28;20036;-82
2022/02/27 02:55:24;;;;;;;6.05;3.15;;;-3276.60;90.90;;;;;;5066812;28;20063;-82
2022/02/27 02:57:49;;;;;;;7.25;2.90;;;-3276.60;90.60;;;;;;5079837;28;20021;-82
2022/02/27 03:00:15;;;;;;;12.00;3.65;;;-3276.60;90.40;;;;;;5083726;28;20025;-82
2022/02/27 03:02:42;;;;;;;8.43;3.88;;;-3276.60;90.20;;;;;;5070578;28;20031;-82
2022/02/27 03:05:08;;;;;;;8.93;3.75;;;-3276.50;90.30;;;;;;5074530;28;20056;-82
2022/02/27 03:07:36;;;;;;;11.43;3.70;;;-3276.50;90.30;;;;;;5070470;28;20108;-81
2022/02/27 03:10:04;;;;;;;7.55;3.33;;;-3276.50;90.40;;;;;;5072848;28;20040;-82
2022/02/27 03:12:30;;;;;;;9.40;3.70;;;-3276.40;90.40;;;;;;5073795;28;20037;-82
2022/02/27 03:14:55;;;;;;;8.55;3.47;;;-3276.50;90.50;;;;;;5073528;28;20048;-82
2022/02/27 03:17:21;;;;;;;9.68;3.15;;;-3276.50;90.60;;;;;;5073688;28;20055;-82
2022/02/27 03:19:46;;;;;;;8.15;3.53;;;-3276.50;90.50;;;;;;5070593;28;20028;-82
2022/02/27 03:22:12;;;;;;;9.45;4.13;;;-3276.50;90.50;;;;;;5065536;28;20108;-82
2022/02/27 03:24:37;;;;;;;10.18;3.58;;;-3276.50;90.60;;;;;;5071060;28;20324;-82
2022/02/27 03:27:03;;;;;;;9.82;3.45;;;-3276.50;90.60;;;;;;5072186;28;20541;-82
2022/02/27 03:29:28;;;;;;;9.48;3.63;;;-3276.50;90.50;;;;;;5073282;28;20047;-81
2022/02/27 03:31:54;;;;;;;8.80;3.65;;;-3276.40;90.70;;;;;;5062255;28;20115;-81
2022/02/27 03:34:20;;;;;;;9.93;3.70;;;-3276.40;90.70;;;;;;5069656;28;20024;-82
2022/02/27 03:36:46;;;;;;;8.07;3.55;;;-3276.40;90.70;;;;;;5077419;28;20231;-81
2022/02/27 03:39:11;;;;;;;11.25;3.75;;;-3276.40;90.80;;;;;;5082465;28;20503;-81
2022/02/27 03:41:37;;;;;;;11.52;3.40;;;-3276.40;90.90;;;;;;5071987;28;20036;-81
2022/02/27 03:44:03;;;;;;;9.73;3.47;;;-3276.40;90.80;;;;;;5070532;28;20136;-81
2022/02/27 03:46:34;;;;;;;7.25;3.42;;;-3276.40;91.00;;;;;;5062672;28;20028;-82
2022/02/27 03:49:08;;;;;;;;;;;-3276.40;91.00;;;;;;5070771;28;20500;-81
2022/02/27 03:51:35;;;;;;;6.35;3.38;;;-3276.30;91.00;;;;;;5067551;28;19912;-81
2022/02/27 03:54:02;;;;;;;7.80;3.60;;;-3276.40;91.30;;;;;;5069406;28;20094;-81
2022/02/27 03:56:27;;;;;;;9.88;3.80;;;-3276.30;91.10;;;;;;5067881;28;20025;-82
2022/02/27 03:58:53;;;;;;;12.95;3.63;;;-3276.30;91.10;;;;;;5080872;28;20032;-81
2022/02/27 04:01:19;;;;;;;14.63;4.03;;;-3276.30;91.00;;;;;;5070722;28;20530;-81
2022/02/27 04:03:44;;;;;;;8.15;3.90;;;-3276.20;91.20;;;;;;5072058;28;20048;-81
2022/02/27 04:06:11;;;;;;;10.80;3.90;;;-3276.20;91.30;;;;;;5072640;28;20039;-81
2022/02/27 04:08:37;;;;;;;10.02;4.43;;;-3276.30;91.40;;;;;;5072457;28;20035;-81
2022/02/27 04:11:02;;;;;;;13.75;4.57;;;-3276.20;91.30;;;;;;5069878;28;20376;-81
2022/02/27 04:13:28;;;;;;;8.95;4.15;;;-3276.10;91.20;;;;;;5072311;28;20142;-81
2022/02/27 04:15:53;;;;;;;11.32;4.65;;;-3276.00;91.30;;;;;;5075869;28;20111;-81
2022/02/27 04:18:19;;;;;;;11.05;3.83;;;-3276.10;91.60;;;;;;5073004;28;20491;-81
2022/02/27 04:20:44;;;;;;;11.95;4.35;;;-3276.20;91.70;;;;;;5070327;28;20020;-81
2022/02/27 04:23:10;;;;;;;13.00;4.35;;;-3276.20;91.70;;;;;;5071661;28;20036;-81
2022/02/27 04:25:35;;;;;;;10.50;3.95;;;-3276.10;91.60;;;;;;5071209;28;20423;-81
2022/02/27 04:28:01;;;;;;;9.45;3.80;;;-3276.10;91.60;;;;;;5070773;28;20029;-81
2022/02/27 04:30:26;;;;;;;9.07;4.15;;;-3276.00;91.70;;;;;;5071485;28;20032;-81
2022/02/27 04:32:52;;;;;;;15.20;4.20;;;-3276.00;91.70;;;;;;5085152;28;20024;-81
2022/02/27 04:35:18;;;;;;;10.15;3.90;;;-3276.10;91.80;;;;;;5073186;28;20020;-81
2022/02/27 04:37:43;;;;;;;10.27;4.03;;;-3276.00;91.90;;;;;;5067920;28;20064;-81
2022/02/27 04:40:09;;;;;;;10.57;4.50;;;-3276.00;91.80;;;;;;5070622;28;20029;-82
2022/02/27 04:42:35;;;;;;;12.75;4.75;;;-3276.10;92.10;;;;;;5068244;28;20031;-81
2022/02/27 04:45:01;;;;;;;9.40;4.28;;;-3276.10;92.00;;;;;;5070570;28;20036;-81
2022/02/27 04:47:26;;;;;;;12.45;4.22;;;-3276.00;91.90;;;;;;5071707;28;20021;-81
2022/02/27 04:49:52;;;;;;;13.75;4.95;;;-3276.00;91.90;;;;;;5068481;28;20032;-81
2022/02/27 04:52:18;;;;;;;11.60;4.53;;;-3275.90;91.90;;;;;;5070244;28;20388;-81
2022/02/27 04:54:44;;;;;;;8.23;4.50;;;-3275.90;92.00;;;;;;5070592;28;20032;-81
2022/02/27 04:57:10;;;;;;;14.85;4.60;;;-3275.80;92.10;;;;;;5070875;28;20028;-81
2022/02/27 04:59:36;;;;;;;10.32;4.75;;;-3275.90;92.20;;;;;;5068228;28;20028;-80
2022/02/27 05:02:02;;;;;;;11.07;4.82;;;-3275.90;92.20;;;;;;5068687;28;20108;-81
2022/02/27 05:04:28;;;;;;;14.65;5.07;;;-3275.80;92.30;;;;;;5068640;28;20178;-81
2022/02/27 05:06:53;;;;;;;11.23;4.45;;;-3275.80;92.30;;;;;;5059890;28;20396;-81
2022/02/27 05:09:19;;;;;;;8.13;4.40;;;-3275.80;92.40;;;;;;5071933;28;20513;-81
2022/02/27 05:11:48;;;;;;;11.13;4.60;;;-3275.80;92.50;;;;;;5063188;28;20032;-81
2022/02/27 05:14:14;;;;;;;10.88;4.43;;;-3275.70;92.40;;;;;;5060912;28;20037;-80
2022/02/27 05:16:41;;;;;;;12.13;4.80;;;-3275.60;92.50;;;;;;5061301;28;20518;-80
2022/02/27 05:19:06;;;;;;;10.95;5.10;;;-3275.60;92.60;;;;;;5071250;28;20066;-80
2022/02/27 05:21:32;;;;;;;12.32;5.68;;;-3275.60;92.80;;;;;;5068377;28;20322;-80
2022/02/27 05:23:58;;;;;;;11.50;5.05;;;-3275.60;92.70;;;;;;5070731;28;20082;-80
2022/02/27 05:26:23;;;;;;;7.97;5.53;;;-3275.70;92.90;;;;;;5073615;28;20020;-80
2022/02/27 05:28:49;;;;;;;11.80;5.45;;;-3275.70;93.00;;;;;;5071387;28;20029;-80
2022/02/27 05:31:14;;;;;;;12.85;5.72;;;-3275.60;92.90;;;;;;5071092;28;20488;-80
2022/02/27 05:33:40;;;;;;;10.68;5.18;;;-3275.70;93.10;;;;;;5071670;28;20074;-81
2022/02/27 05:36:06;;;;;;;17.77;6.22;;;-3275.70;93.10;;;;;;5068202;28;20029;-81
2022/02/27 05:38:32;;;;;;;10.13;5.22;;;-3275.70;93.10;;;;;;5071490;28;20035;-80
2022/02/27 05:40:58;;;;;;;18.45;6.57;;;-3275.70;93.20;;;;;;5070098;28;20025;-80
2022/02/27 05:43:23;;;;;;;14.88;6.25;;;-3275.70;93.20;;;;;;5070014;28;20065;-80
2022/02/27 05:45:49;;;;;;;9.82;5.50;;;-3275.70;93.30;;;;;;5069933;28;20484;-80
2022/02/27 05:48:14;;;;;;;12.18;5.88;;;-3275.60;93.20;;;;;;5069068;28;20021;-80
2022/02/27 05:50:40;;;;;;;13.13;5.07;;;-3275.60;93.30;;;;;;5060348;28;20036;-80
2022/02/27 05:53:06;;;;;;;15.85;6.28;;;-3275.70;93.50;;;;;;5085329;28;20081;-80
2022/02/27 05:55:32;;;;;;;13.95;6.00;;;-3275.60;93.40;;;;;;5057526;28;20037;-81
2022/02/27 05:57:57;;;;;;;13.23;6.18;;;-3275.60;93.50;;;;;;5070561;28;20047;-79
2022/02/27 06:00:23;;;;;;;11.43;5.63;;;-3275.60;93.50;;;;;;5066223;28;20028;-81
2022/02/27 06:02:48;;;;;;;14.82;6.45;;;-3275.70;93.70;;;;;;5068948;28;20024;-81
2022/02/27 06:05:14;;;;;;;14.45;7.30;;;-3275.60;93.50;;;;;;5070526;28;20064;-81
2022/02/27 06:07:40;;;;;;;11.85;5.82;;;-3275.50;93.50;;;;;;5066538;28;20033;-81
2022/02/27 06:10:06;;;;;;;16.15;6.95;;;-3275.60;93.70;;;;;;5068803;28;20036;-81
2022/02/27 06:12:32;;;;;;;11.68;6.07;;;-3275.60;93.60;;;;;;5069624;28;20028;-80
2022/02/27 06:14:57;;;;;;;15.57;7.00;;;-3275.60;93.60;;;;;;5070979;28;20365;-80
2022/02/27 06:17:23;;;;;;;14.13;6.75;;;-3275.60;93.70;;;;;;5065801;28;20054;-81
2022/02/27 06:19:49;;;;;;;13.45;6.75;;;-3275.60;93.60;;;;;;5069293;28;20036;-80
2022/02/27 06:22:14;;;;;;;11.20;6.45;;;-3275.70;93.80;;;;;;5068550;28;20624;-80
2022/02/27 06:24:40;;;;;;;16.77;6.97;;;-3275.70;93.80;;;;;;5061926;28;20435;-81
2022/02/27 06:27:06;;;;;;;15.02;6.82;;;-3275.70;93.70;;;;;;5067459;28;20117;-80
2022/02/27 06:29:31;;;;;;;13.48;7.20;;;-3275.70;93.80;;;;;;5065089;28;20052;-80
2022/02/27 06:31:57;;;;;;;14.52;7.50;;;-3275.70;93.80;;;;;;5068245;28;20032;-79
2022/02/27 06:34:22;;;;;;;13.20;7.53;;;-3275.70;93.90;;;;;;5070972;28;20037;-79
2022/02/27 06:36:48;;;;;;;16.60;7.47;;;-3275.70;93.80;;;;;;5072610;28;20451;-79
2022/02/27 06:39:13;;;;;;;16.73;7.28;;;-3275.80;94.00;;;;;;5070144;28;20065;-79
2022/02/27 06:41:39;;;;;;;16.92;7.85;;;-3275.80;93.80;;;;;;5064089;28;20020;-79
2022/02/27 06:44:05;;;;;;;18.77;7.85;;;-3275.80;93.90;;;;;;5089889;28;20035;-79
2022/02/27 06:46:31;;;;;;;21.02;7.85;;;-3275.80;93.80;;;;;;5083708;28;20036;-79
2022/02/27 06:48:57;;;;;;;19.60;9.30;;;-3275.70;93.80;;;;;;5064288;28;20081;-79
2022/02/27 06:51:22;;;;;;;20.08;8.18;;;-3275.80;93.80;;;;;;5073236;28;20079;-79
2022/02/27 06:53:48;;;;;;;24.27;8.23;;;-3275.90;94.00;;;;;;5073432;28;20028;-79
2022/02/27 06:56:13;;;;;;;20.40;7.65;;;-3275.90;94.00;;;;;;5073825;28;20056;-79
2022/02/27 06:58:40;;;;;;;21.27;8.30;;;-3275.90;93.90;;;;;;5073584;28;20676;-79
2022/02/27 07:01:06;;;;;;;12.90;7.70;;;-3275.90;93.90;;;;;;5069313;28;20028;-79
2022/02/27 07:03:31;;;;;;;15.82;7.88;;;-3276.00;94.00;;;;;;5059823;28;20021;-80
2022/02/27 07:05:57;;;;;;;16.77;6.97;;;-3276.00;93.90;;;;;;5068298;28;20033;-80
2022/02/27 07:08:22;;;;;;;13.15;7.40;;;-3276.10;93.90;;;;;;5069978;28;20030;-79
2022/02/27 07:10:49;;;;;;;17.83;7.70;;;-3276.20;93.80;;;;;;5073303;28;20055;-80
2022/02/27 07:13:14;;;;;;;20.45;8.00;;;-3276.20;93.80;;;;;;5054277;28;20025;-80
2022/02/27 07:15:40;;;;;;;17.70;8.35;;;-3276.30;93.80;;;;;;5069090;28;20078;-80
2022/02/27 07:18:06;;;;;;;16.05;7.78;;;-3276.30;93.80;;;;;;5070548;28;20094;-80
2022/02/27 07:20:32;;;;;;;22.80;8.25;;;-3276.50;93.80;;;;;;5069527;28;20025;-81
2022/02/27 07:22:57;;;;;;;15.32;8.07;;;-3276.60;93.70;;;;;;5070885;28;20020;-81
2022/02/27 07:25:23;;;;;;;14.18;8.02;;;-3276.70;93.80;;;;;;5073180;28;20033;-81
2022/02/27 07:27:48;;;;;;;20.58;8.48;;;0.00;93.60;;;;;;5068451;28;20480;-83
2022/02/27 07:30:14;;;;;;;15.00;7.15;;;0.00;93.60;;;;;;5072600;28;20028;-81
2022/02/27 07:32:40;;;;;;;18.42;8.48;;;0.20;93.50;;;;;;5063668;28;20401;-81
2022/02/27 07:35:06;;;;;;;19.30;8.55;;;0.30;93.50;;;;;;5070431;28;20120;-82
2022/02/27 07:37:34;;;;;;;14.32;8.10;;;0.40;93.30;;;;;;5072661;28;20025;-81
2022/02/27 07:39:59;;;;;;;13.13;7.60;;;0.60;93.10;;;;;;5072786;28;20376;-81
2022/02/27 07:42:25;;;;;;;11.15;6.93;;;0.70;93.00;;;;;;5063928;28;20028;-81
2022/02/27 07:44:52;;;;;;;16.08;7.15;;;0.80;92.70;;;;;;5071815;28;20476;-81
2022/02/27 07:47:18;;;;;;;14.23;7.10;;;0.90;92.50;;;;;;5067700;28;20154;-82
2022/02/27 07:49:43;;;;;;;18.05;6.38;;;1.00;92.10;;;;;;5072215;28;20111;-82
2022/02/27 07:52:09;;;;;;;14.95;6.70;;;1.00;91.60;;;;;;5063783;28;20507;-81
2022/02/27 07:54:34;;;;;;;13.35;6.32;;;1.10;91.30;;;;;;5080750;28;20033;-81
2022/02/27 07:57:00;;;;;;;10.70;6.47;;;1.10;90.80;;;;;;5074694;28;20040;-81
2022/02/27 07:59:25;;;;;;;12.10;5.57;;;1.30;90.70;;;;;;5083837;28;20064;-82
2022/02/27 08:01:51;;;;;;;11.90;5.97;;;1.40;90.20;;;;;;5073174;28;20024;-82
2022/02/27 08:04:16;;;;;;;12.35;5.53;;;1.50;90.00;;;;;;5072649;28;20043;-82
2022/02/27 08:06:42;;;;;;;11.07;5.28;;;1.60;89.40;;;;;;5069490;28;20031;-82
2022/02/27 08:09:07;;;;;;;11.95;5.40;;;1.60;88.90;;;;;;5067954;28;20032;-83
2022/02/27 08:11:33;;;;;;;14.45;4.97;;;1.70;88.90;;;;;;5071002;28;20028;-82
2022/02/27 08:14:00;;;;;;;10.45;4.85;;;1.80;88.40;;;;;;5065208;28;20059;-82
2022/02/27 08:16:25;;;;;;;12.88;4.82;;;2.00;88.00;;;;;;5071839;28;20032;-82
2022/02/27 08:18:51;;;;;;;10.55;4.80;;;2.10;88.00;;;;;;5068714;28;20016;-82
2022/02/27 08:21:17;;;;;;;10.05;5.63;;;2.30;87.60;;;;;;5060178;28;20070;-82
2022/02/27 08:23:42;;;;;;;13.85;5.13;;;2.50;86.80;;;;;;5072935;28;20028;-82
2022/02/27 08:26:08;;;;;;;14.07;5.07;;;2.60;86.50;;;;;;5071606;28;20029;-82
2022/02/27 08:28:34;;;;;;;10.52;4.53;;;2.70;86.10;;;;;;5067437;28;20488;-82
2022/02/27 08:31:00;;;;;;;10.80;4.65;;;2.90;86.00;;;;;;5070914;28;20107;-82
2022/02/27 08:33:26;;;;;;;10.35;4.03;;;3.30;85.70;;;;;;5072281;28;20036;-82
2022/02/27 08:35:52;;;;;;;11.20;4.28;;;3.30;84.30;;;;;;5070592;28;20457;-82
2022/02/27 08:38:20;;;;;;;12.65;3.80;;;3.40;84.30;;;;;;5072201;28;20021;-83
2022/02/27 08:40:46;;;;;;;12.73;4.47;;;3.60;83.40;;;;;;5070322;28;20028;-83
2022/02/27 08:43:11;;;;;;;9.85;4.00;;;3.40;83.00;;;;;;5071290;28;20035;-83
2022/02/27 08:45:37;;;;;;;8.93;4.20;;;3.50;82.40;;;;;;5063570;28;20028;-82
2022/02/27 08:48:03;;;;;;;11.93;4.07;;;3.70;82.40;;;;;;5054477;28;20479;-82
2022/02/27 08:50:28;;;;;;;8.80;3.95;;;4.00;82.40;;;;;;5062353;28;20029;-82
2022/02/27 08:52:54;;;;;;;9.68;3.22;;;4.10;81.70;;;;;;5067820;28;20111;-82
2022/02/27 08:55:19;;;;;;;11.30;3.47;;;4.30;81.20;;;;;;5069843;28;20029;-82
2022/02/27 08:57:46;;;;;;;7.47;3.53;;;4.50;81.80;;;;;;5070500;28;20027;-82
2022/02/27 09:00:13;;;;;;;11.00;3.88;;;4.60;80.10;;;;;;5070090;28;20028;-82
2022/02/27 09:02:39;;;;;;;8.50;3.60;;;4.60;79.70;;;;;;5065260;28;20027;-82
2022/02/27 09:05:05;;;;;;;7.10;3.67;;;4.80;80.00;;;;;;5067383;28;20052;-83
2022/02/27 09:07:32;;;;;;;9.57;3.72;;;5.00;79.40;;;;;;5076774;28;20040;-83
2022/02/27 09:09:57;;;;;;;8.50;3.80;;;5.10;79.00;;;;;;5070529;28;20040;-82
2022/02/27 09:12:23;;;;;;;7.03;3.47;;;5.10;78.50;;;;;;5070933;28;20059;-83
2022/02/27 09:14:48;;;;;;;8.63;3.72;;;5.20;77.50;;;;;;5073006;28;20055;-82
2022/02/27 09:17:14;;;;;;;9.18;3.28;;;5.10;77.00;;;;;;5070750;28;20024;-82
2022/02/27 09:19:40;;;;;;;9.38;3.38;;;5.10;77.40;;;;;;5085769;28;20504;-82
2022/02/27 09:22:06;;;;;;;9.20;3.70;;;5.40;77.80;;;;;;5069082;28;20481;-82
2022/02/27 09:24:31;;;;;;;8.88;3.47;;;5.70;78.00;;;;;;5065705;28;20025;-82
2022/02/27 09:26:57;;;;;;;7.88;3.70;;;5.70;76.10;;;;;;5068093;28;20377;-82
2022/02/27 09:29:23;;;;;;;7.97;3.53;;;5.60;76.20;;;;;;5068615;28;20111;-82
2022/02/27 09:31:49;;;;;;;10.98;3.55;;;5.70;76.10;;;;;;5069710;28;20056;-82
2022/02/27 09:34:15;;;;;;;13.95;3.92;;;5.90;76.00;;;;;;5065332;28;20115;-83
2022/02/27 09:36:40;;;;;;;8.30;3.25;;;5.90;75.40;;;;;;5062519;28;20108;-83
2022/02/27 09:39:06;;;;;;;10.85;3.10;;;5.60;76.50;;;;;;5070384;28;20186;-83
2022/02/27 09:41:32;;;;;;;7.72;3.25;;;5.80;76.80;;;;;;5070241;28;20032;-82
2022/02/27 09:44:00;;;;;;;8.80;3.00;;;6.10;76.00;;;;;;5086237;28;20092;-83
2022/02/27 09:46:28;;;;;;;8.32;3.10;;;6.10;74.50;;;;;;5066765;28;20488;-83
2022/02/27 09:48:54;;;;;;;10.20;3.67;;;6.00;74.50;;;;;;5084743;28;20035;-83
2022/02/27 09:51:20;;;;;;;8.00;2.90;;;6.20;75.00;;;;;;5059634;28;20036;-83
2022/02/27 09:53:46;;;;;;;10.23;3.45;;;6.40;74.60;;;;;;5066926;28;20049;-83
2022/02/27 09:56:12;;;;;;;7.57;2.72;;;6.20;73.10;;;;;;5068752;28;20029;-82
2022/02/27 09:58:38;;;;;;;6.18;2.70;;;6.10;74.60;;;;;;5069611;28;20028;-83
2022/02/27 10:01:05;;;;;;;6.88;3.20;;;6.30;73.70;;;;;;5067209;28;20435;-83
2022/02/27 10:03:32;;;;;;;9.25;3.55;;;6.30;73.30;;;;;;5082143;28;20028;-82
2022/02/27 10:06:03;;;;;;;13.00;5.10;;;6.20;73.20;;;;;;5067473;28;20032;-82
2022/02/27 10:08:56;;;;;;;8.38;3.80;;;6.30;73.20;;;;;;5068751;28;20513;-82
2022/02/27 10:11:22;;;;;;;10.98;3.67;;;6.60;72.80;;;;;;5055171;28;20485;-82
2022/02/27 10:13:55;;;;;;;10.68;3.83;;;6.60;72.40;;;;;;5068506;28;20037;-82
2022/02/27 10:16:23;;;;;;;11.20;4.60;;;6.60;71.20;;;;;;5067297;28;20101;-82
2022/02/27 10:18:51;;;;;;;6.78;2.80;;;6.90;71.50;;;;;;5066315;28;20028;-82
2022/02/27 10:21:24;;;;;;;6.18;2.92;;;6.90;70.20;;;;;;5063823;28;20025;-82
2022/02/27 10:24:04;;;;;;;12.02;2.88;;;6.60;70.10;;;;;;5073301;28;20031;-82
2022/02/27 10:26:33;;;;;;;6.47;3.33;;;7.00;70.10;;;;;;5066558;28;20464;-81
2022/02/27 10:29:03;;;;;;;9.57;2.75;;;7.10;70.10;;;;;;5063661;28;20503;-81
2022/02/27 10:31:29;;;;;;;7.32;3.47;;;7.30;67.70;;;;;;5070011;28;20020;-81
2022/02/27 10:34:18;;;;;;;12.27;5.60;;;7.30;68.00;;;;;;5067858;28;20377;-82
2022/02/27 10:36:57;;;;;;;10.70;5.03;;;7.10;68.10;;;;;;5064711;28;20110;-82
2022/02/27 10:39:51;;;;;;;5.03;1.92;;;7.10;66.30;;;;;;5081342;28;20029;-82
2022/02/27 10:42:26;;;;;;;10.75;6.00;;;7.20;64.80;;;;;;5081735;28;20040;-81
2022/02/27 10:44:55;;;;;;;5.43;2.05;;;7.30;65.30;;;;;;5082359;28;20115;-82
2022/02/27 10:47:27;;;;;;;6.75;2.17;;;7.60;64.90;;;;;;5066327;28;20157;-83
2022/02/27 10:49:55;;;;;;;5.45;1.67;;;7.70;63.70;;;;;;5065321;28;20017;-82
2022/02/27 10:52:29;;;;;;;7.05;4.43;;;7.70;62.40;;;;;;5064790;28;20055;-82
2022/02/27 10:55:06;;;;;;;4.68;1.92;;;7.70;62.10;;;;;;5063939;28;20029;-82
2022/02/27 10:57:38;;;;;;;6.40;1.75;;;7.70;62.10;;;;;;5064759;28;20179;-83
2022/02/27 11:00:11;;;;;;;8.68;4.93;;;7.90;62.10;;;;;;5067678;28;20084;-83
2022/02/27 11:02:38;;;;;;;9.45;3.83;;;7.90;61.20;;;;;;5066414;28;20400;-82
2022/02/27 11:05:11;;;;;;;7.50;3.92;;;7.80;61.10;;;;;;5059537;28;20064;-82
2022/02/27 11:07:39;;;;;;;5.45;2.03;;;8.30;62.30;;;;;;5065988;28;20028;-82
2022/02/27 11:10:07;;;;;;;5.40;2.92;;;8.10;60.10;;;;;;5069222;28;20020;-82
2022/02/27 11:12:35;;;;;;;4.97;1.90;;;8.30;61.40;;;;;;5067960;28;20035;-83
2022/02/27 11:15:01;;;;;;;5.70;2.25;;;8.40;59.90;;;;;;5065536;28;20035;-83
2022/02/27 11:17:27;;;;;;;11.25;5.40;;;8.60;60.10;;;;;;5069117;28;20032;-83
2022/02/27 11:19:53;;;;;;;7.70;3.50;;;8.80;60.60;;;;;;5067194;28;20031;-83
2022/02/27 11:22:20;;;;;;;6.15;1.80;;;8.60;59.20;;;;;;5070988;28;20021;-83
2022/02/27 11:24:49;;;;;;;6.93;1.73;;;8.80;59.10;;;;;;5069909;28;20062;-83
2022/02/27 11:27:15;;;;;;;8.40;2.45;;;8.90;59.00;;;;;;5072070;28;20033;-83
2022/02/27 11:29:41;;;;;;;6.65;2.47;;;8.60;57.30;;;;;;5067971;28;20105;-83
2022/02/27 11:32:07;;;;;;;5.45;2.65;;;8.70;58.00;;;;;;5068326;28;20032;-84
2022/02/27 11:34:41;;;;;;;4.93;2.20;;;9.10;58.90;;;;;;5066260;28;20024;-83
2022/02/27 11:37:07;;;;;;;8.48;4.05;;;9.40;58.20;;;;;;5070013;28;20055;-83
2022/02/27 11:42:49;;;;;;;10.05;4.38;;;9.00;58.50;;;;;;5072312;28;20086;-84
2022/02/27 11:45:20;;;;;;;7.20;2.88;;;9.30;58.30;;;;;;5083892;28;20090;-84
2022/02/27 11:47:50;;;;;;;5.60;2.08;;;9.40;56.80;;;;;;5062594;28;20020;-84
2022/02/27 11:50:23;;;;;;;5.72;2.05;;;9.10;55.50;;;;;;5074440;28;20036;-83
2022/02/27 11:52:49;;;;;;;6.15;2.53;;;9.20;57.00;;;;;;5071512;28;20081;-83
2022/02/27 11:55:42;;;;;;;6.78;2.97;;;9.40;55.00;;;;;;5071126;28;20515;-84
2022/02/27 11:58:20;;;;;;;7.18;2.80;;;9.30;53.70;;;;;;5071016;28;20488;-84
2022/02/27 12:00:47;;;;;;;5.88;2.72;;;9.50;53.40;;;;;;5081026;28;20079;-84
2022/02/27 12:03:31;;;;;;;10.27;6.38;;;9.50;53.20;;;;;;5067699;28;20021;-84
2022/02/27 12:06:02;;;;;;;5.05;2.28;;;9.60;52.80;;;;;;5063593;28;20072;-84
2022/02/27 12:08:41;;;;;;;6.05;3.10;;;9.50;49.80;;;;;;5067967;28;22976;-84
2022/02/27 12:11:25;;;;;;;12.82;7.80;;;9.50;50.80;;;;;;5068597;28;20017;-84
2022/02/27 12:14:01;;;;;;;6.35;2.47;;;9.40;51.00;;;;;;5072757;28;20036;-84
2022/02/27 12:16:45;;;;;;;7.88;2.97;;;9.60;50.00;;;;;;5068599;28;20057;-84
2022/02/27 12:19:31;;;;;;;7.90;3.58;;;9.90;49.70;;;;;;5068057;28;20389;-84
2022/02/27 12:21:59;;;;;;;6.13;2.65;;;10.20;50.40;;;;;;5069116;28;20115;-84
2022/02/27 12:24:30;;;;;;;10.25;3.95;;;10.60;48.90;;;;;;5060581;28;20477;-84
2022/02/27 12:27:04;;;;;;;7.78;1.98;;;10.10;49.30;;;;;;5063451;28;20033;-84
2022/02/27 12:29:37;;;;;;;8.48;3.38;;;10.20;48.40;;;;;;5064793;28;20063;-84
2022/02/27 12:32:13;;;;;;;10.85;6.25;;;10.60;47.50;;;;;;5069054;28;20028;-84